Hopeton, Oklahoma
Current Conditions -  °F | °C
As of 8:30 AM on Thursday 23 Oct 2014 (Local Time) from KAVK Reporting Station
Overcast Overcast  
Wind Chill: 59°   Ceiling: 3200
Heat Index: 59°   Visibility: 10mi
Dew Point: 57°   Wind: 9mph
Humidity: 94%   Direction: 180°S
Pressure: 30.09"   Gusts: NA
Location:  36.69°N, 98.67°W
Report Text: KAVK 231330Z AUTO 18008KT 10SM OVC032 15/14 A3009 RMK AO2
Loading
Personal Weather Stations






























Interactive Weather Map
Tropical Storm Tracking
New forecast layout! Learn more

10-Day Weather Forecast

Advertisements
Track Severe Weather on mobile